createdAt,value
2017-06-20T00:01:07.516Z,18.60
2017-06-20T00:03:35.173Z,18.60
2017-06-20T00:06:03.128Z,18.50
2017-06-20T00:08:30.761Z,18.50
2017-06-20T00:10:58.392Z,18.40
2017-06-20T00:13:26.332Z,18.40
2017-06-20T00:15:53.996Z,18.40
2017-06-20T00:18:21.640Z,18.30
2017-06-20T00:20:49.691Z,18.30
2017-06-20T00:23:17.341Z,18.20
2017-06-20T00:25:44.981Z,18.20
2017-06-20T00:28:12.943Z,18.20
2017-06-20T00:30:40.589Z,18.20
2017-06-20T00:33:08.239Z,18.10
2017-06-20T00:35:36.192Z,18.20
2017-06-20T00:38:04.745Z,18.10
2017-06-20T00:40:32.377Z,18.00
2017-06-20T00:43:00.377Z,18.00
2017-06-20T00:45:28.014Z,18.00
2017-06-20T00:47:55.663Z,18.00
2017-06-20T00:50:23.601Z,18.00
2017-06-20T00:52:51.247Z,17.90
2017-06-20T00:55:18.884Z,17.90
2017-06-20T00:57:46.853Z,17.90
2017-06-20T01:00:14.501Z,17.90
2017-06-20T01:02:42.137Z,17.80
2017-06-20T01:05:10.105Z,17.80
2017-06-20T01:07:37.752Z,17.80
2017-06-20T01:10:05.397Z,17.80
2017-06-20T01:12:33.449Z,17.70
2017-06-20T01:15:01.081Z,17.70
2017-06-20T01:17:28.752Z,17.70
2017-06-20T01:19:56.726Z,17.60
2017-06-20T01:22:24.372Z,17.60
2017-06-20T01:24:52.025Z,17.50
2017-06-20T01:27:20.052Z,17.50
2017-06-20T01:29:47.701Z,17.50
2017-06-20T01:32:15.344Z,17.40
2017-06-20T01:34:43.416Z,17.40
2017-06-20T01:37:11.056Z,17.40
2017-06-20T01:39:38.694Z,17.40
2017-06-20T01:42:06.610Z,17.40
2017-06-20T01:44:34.260Z,17.40
2017-06-20T01:47:01.896Z,17.30
2017-06-20T01:49:29.930Z,17.30
2017-06-20T01:51:58.348Z,17.20
2017-06-20T01:54:25.980Z,17.20
2017-06-20T01:56:53.950Z,17.20
2017-06-20T01:59:21.618Z,17.10
2017-06-20T02:01:49.256Z,17.10
2017-06-20T02:04:17.194Z,17.10
2017-06-20T02:06:44.834Z,17.10
2017-06-20T02:09:12.496Z,17.10
2017-06-20T02:11:40.439Z,17.10
2017-06-20T02:14:08.086Z,17.10
2017-06-20T02:16:35.716Z,17.00
2017-06-20T02:19:03.788Z,17.00
2017-06-20T02:21:32.403Z,17.00
2017-06-20T02:24:00.042Z,17.00
2017-06-20T02:26:28.005Z,17.00
2017-06-20T02:28:56.412Z,16.90
2017-06-20T02:31:24.076Z,16.90
2017-06-20T02:33:52.012Z,16.90
2017-06-20T02:36:19.664Z,16.90
2017-06-20T02:38:47.298Z,16.80
2017-06-20T02:41:15.285Z,16.80
2017-06-20T02:43:42.928Z,16.90
2017-06-20T02:46:10.579Z,16.90
2017-06-20T02:48:38.662Z,16.90
2017-06-20T02:51:06.305Z,16.90
2017-06-20T02:53:33.949Z,16.80
2017-06-20T02:56:01.917Z,16.80
2017-06-20T02:58:30.336Z,16.90
2017-06-20T03:00:57.973Z,16.80
2017-06-20T03:03:25.913Z,16.80
2017-06-20T03:05:53.590Z,16.70
2017-06-20T03:08:21.228Z,16.70
2017-06-20T03:11:14.880Z,16.70
2017-06-20T03:13:42.508Z,16.80
2017-06-20T03:16:10.149Z,16.80
2017-06-20T03:18:38.080Z,16.70
2017-06-20T03:21:06.444Z,16.80
2017-06-20T03:23:34.100Z,16.80
2017-06-20T03:26:02.098Z,16.80
2017-06-20T03:28:29.736Z,16.80
2017-06-20T03:30:57.398Z,16.90
2017-06-20T03:33:25.336Z,16.80
2017-06-20T03:35:53.078Z,16.80
2017-06-20T03:38:20.765Z,16.80
2017-06-20T03:40:48.804Z,16.80
2017-06-20T03:43:16.464Z,16.90
2017-06-20T03:45:44.106Z,17.00
2017-06-20T03:48:12.043Z,17.00
2017-06-20T03:50:39.668Z,17.00
2017-06-20T03:53:07.309Z,17.10
2017-06-20T03:55:35.364Z,17.10
2017-06-20T03:58:02.999Z,17.20
2017-06-20T04:00:30.644Z,17.20
2017-06-20T04:02:58.617Z,17.30
2017-06-20T04:05:26.268Z,17.30
2017-06-20T04:07:54.049Z,17.30
2017-06-20T04:10:22.800Z,17.50
2017-06-20T04:12:50.450Z,17.40
2017-06-20T04:15:18.098Z,17.60
2017-06-20T04:17:46.160Z,17.60
2017-06-20T04:20:13.801Z,17.80
2017-06-20T04:22:41.437Z,17.80
2017-06-20T04:25:09.424Z,17.90
2017-06-20T04:27:37.069Z,18.10
2017-06-20T04:30:04.704Z,18.20
2017-06-20T04:32:32.877Z,18.40
2017-06-20T04:35:00.530Z,18.50
2017-06-20T04:37:28.186Z,18.60
2017-06-20T04:39:56.908Z,19.00
2017-06-20T04:42:24.548Z,18.90
2017-06-20T04:44:52.932Z,19.40
2017-06-20T04:47:20.869Z,19.30
2017-06-20T04:49:48.572Z,19.50
2017-06-20T04:52:16.178Z,19.70
2017-06-20T04:54:44.135Z,19.90
2017-06-20T04:57:11.758Z,20.10
2017-06-20T04:59:40.474Z,20.60
2017-06-20T05:02:08.506Z,20.50
2017-06-20T05:04:36.112Z,20.80
2017-06-20T05:07:03.722Z,20.80
2017-06-20T05:09:31.608Z,21.00
2017-06-20T05:11:59.996Z,21.40
2017-06-20T05:14:27.611Z,21.30
2017-06-20T05:16:55.512Z,21.50
2017-06-20T05:19:23.127Z,21.90
2017-06-20T05:21:50.754Z,22.30
2017-06-20T05:24:18.755Z,22.60
2017-06-20T05:26:46.365Z,22.70
2017-06-20T05:29:13.999Z,23.00
2017-06-20T05:31:42.012Z,23.30
2017-06-20T05:34:09.627Z,23.40
2017-06-20T05:36:38.012Z,23.60
2017-06-20T05:39:05.951Z,23.50
2017-06-20T05:41:33.566Z,23.70
2017-06-20T05:44:01.956Z,23.90
2017-06-20T05:46:31.293Z,24.10
2017-06-20T05:48:58.904Z,24.00
2017-06-20T05:51:26.525Z,24.30
2017-06-20T05:53:54.513Z,24.50
2017-06-20T05:56:22.127Z,24.70
2017-06-20T05:58:49.743Z,24.50
2017-06-20T06:01:17.660Z,24.70
2017-06-20T06:03:45.297Z,24.90
2017-06-20T06:06:12.909Z,24.90
2017-06-20T06:08:41.004Z,25.10
2017-06-20T06:11:08.628Z,25.70
2017-06-20T06:13:36.256Z,26.30
2017-06-20T06:16:04.252Z,27.20
2017-06-20T06:18:31.871Z,27.90
2017-06-20T06:21:00.258Z,28.90
2017-06-20T06:23:28.206Z,28.80
2017-06-20T06:25:55.821Z,29.20
2017-06-20T06:28:23.443Z,29.00
2017-06-20T06:30:51.471Z,29.60
2017-06-20T06:33:19.110Z,30.00
2017-06-20T06:35:46.721Z,30.30
2017-06-20T06:38:15.429Z,31.00
2017-06-20T06:40:43.053Z,30.90
2017-06-20T06:43:10.665Z,31.40
2017-06-20T06:45:40.316Z,32.10
2017-06-20T06:48:07.918Z,32.00
2017-06-20T06:50:36.294Z,32.80
2017-06-20T06:53:05.097Z,33.40
2017-06-20T06:55:32.744Z,33.40
2017-06-20T06:58:01.145Z,33.10
2017-06-20T07:00:29.157Z,33.10
2017-06-20T07:02:56.774Z,33.30
2017-06-20T07:05:24.394Z,33.70
2017-06-20T07:07:52.285Z,34.10
2017-06-20T07:10:19.912Z,34.10
2017-06-20T07:12:47.568Z,34.60
2017-06-20T07:15:16.267Z,34.70
2017-06-20T07:17:43.883Z,34.60
2017-06-20T07:20:12.278Z,34.80
2017-06-20T07:22:40.229Z,34.70
2017-06-20T07:25:07.837Z,34.90
2017-06-20T07:27:36.222Z,35.10
2017-06-20T07:30:04.190Z,35.10
2017-06-20T07:32:31.809Z,35.20
2017-06-20T07:35:00.194Z,35.80
2017-06-20T07:37:28.171Z,35.70
2017-06-20T07:39:55.788Z,35.80
2017-06-20T07:42:23.413Z,35.90
2017-06-20T07:44:51.413Z,35.90
2017-06-20T07:47:19.127Z,35.60
2017-06-20T07:49:47.504Z,36.00
2017-06-20T07:52:15.517Z,36.00
2017-06-20T07:54:43.132Z,36.10
2017-06-20T07:57:10.756Z,36.30
2017-06-20T07:59:38.716Z,36.80
2017-06-20T08:02:06.335Z,37.20
2017-06-20T08:04:34.710Z,36.90
2017-06-20T08:07:02.677Z,36.80
2017-06-20T08:09:30.286Z,37.20
2017-06-20T08:11:58.674Z,37.10
2017-06-20T08:14:26.600Z,37.00
2017-06-20T08:16:54.208Z,37.00
2017-06-20T08:19:21.849Z,37.20
2017-06-20T08:21:55.515Z,36.80
2017-06-20T08:24:23.159Z,36.60
2017-06-20T08:26:50.769Z,36.70
2017-06-20T08:29:18.800Z,37.00
2017-06-20T08:31:46.444Z,37.30
2017-06-20T08:34:14.058Z,37.40
2017-06-20T08:36:42.015Z,37.90
2017-06-20T08:39:09.652Z,37.80
2017-06-20T08:41:37.276Z,37.80
2017-06-20T08:44:05.985Z,37.40
2017-06-20T08:46:33.619Z,37.30
2017-06-20T08:49:01.230Z,37.30
2017-06-20T08:51:29.229Z,37.70
2017-06-20T08:53:56.857Z,37.80
2017-06-20T08:56:24.472Z,37.90
2017-06-20T08:58:52.465Z,38.10
2017-06-20T09:01:20.097Z,38.20
2017-06-20T09:03:48.465Z,37.90
2017-06-20T09:06:16.431Z,37.80
2017-06-20T09:08:44.053Z,38.00
2017-06-20T09:11:12.433Z,38.30
2017-06-20T09:13:40.424Z,38.30
2017-06-20T09:16:08.084Z,38.20
2017-06-20T09:18:35.704Z,38.60
2017-06-20T09:21:03.651Z,38.50
2017-06-20T09:23:31.270Z,38.40
2017-06-20T09:25:59.654Z,37.90
2017-06-20T09:28:27.622Z,37.90
2017-06-20T09:30:55.301Z,38.10
2017-06-20T09:33:22.940Z,38.50
2017-06-20T09:35:50.966Z,38.40
2017-06-20T09:38:18.605Z,38.20
2017-06-20T09:40:46.236Z,38.10
2017-06-20T09:43:30.688Z,38.10
2017-06-20T09:45:58.324Z,38.00
2017-06-20T09:48:25.942Z,38.10
2017-06-20T09:50:53.938Z,37.90
2017-06-20T09:53:21.552Z,38.20
2017-06-20T09:55:49.925Z,37.50
2017-06-20T09:58:18.717Z,37.60
2017-06-20T10:00:46.877Z,37.50
2017-06-20T10:03:14.500Z,37.50
2017-06-20T10:05:43.175Z,37.80
2017-06-20T10:08:10.798Z,37.80
2017-06-20T10:10:38.416Z,37.70
2017-06-20T10:13:06.444Z,37.60
2017-06-20T10:15:34.057Z,37.60
2017-06-20T10:18:02.448Z,37.10
2017-06-20T10:20:30.400Z,37.00
2017-06-20T10:22:58.033Z,37.00
2017-06-20T10:25:25.654Z,36.90
2017-06-20T10:27:53.654Z,37.00
2017-06-20T10:30:21.272Z,36.90
2017-06-20T10:32:48.988Z,36.80
2017-06-20T10:35:16.901Z,37.10
2017-06-20T10:37:44.513Z,36.70
2017-06-20T10:40:12.897Z,36.20
2017-06-20T10:42:40.841Z,36.10
2017-06-20T10:45:08.459Z,35.40
2017-06-20T10:47:36.081Z,35.20
2017-06-20T10:50:04.108Z,35.60
2017-06-20T10:52:31.718Z,36.20
2017-06-20T10:55:00.119Z,34.90
2017-06-20T10:57:28.088Z,34.90
2017-06-20T10:59:55.719Z,34.50
2017-06-20T11:02:23.329Z,34.70
2017-06-20T11:04:51.310Z,34.80
2017-06-20T11:07:18.938Z,34.60
2017-06-20T11:09:47.313Z,35.30
2017-06-20T11:12:15.258Z,35.20
2017-06-20T11:14:43.663Z,35.70
2017-06-20T11:17:11.331Z,35.60
2017-06-20T11:19:39.254Z,35.60
2017-06-20T11:22:06.870Z,35.10
2017-06-20T11:24:35.255Z,33.90
2017-06-20T11:27:03.205Z,33.80
2017-06-20T11:29:30.833Z,33.80
2017-06-20T11:31:59.204Z,33.70
2017-06-20T11:34:27.181Z,33.60
2017-06-20T11:36:54.789Z,33.60
2017-06-20T11:39:23.165Z,33.20
2017-06-20T11:41:51.142Z,33.10
2017-06-20T11:44:18.880Z,33.20
2017-06-20T11:46:46.532Z,33.30
2017-06-20T11:49:14.497Z,33.40
2017-06-20T11:51:42.172Z,33.40
2017-06-20T11:54:09.779Z,33.30
2017-06-20T11:56:37.714Z,33.00
2017-06-20T11:59:05.339Z,32.70
2017-06-20T12:01:33.725Z,32.10
2017-06-20T12:04:02.402Z,31.80
2017-06-20T12:06:30.018Z,31.80
2017-06-20T12:08:58.411Z,31.90
2017-06-20T12:11:26.382Z,31.80
2017-06-20T12:13:53.985Z,32.00
2017-06-20T12:16:22.437Z,31.90
2017-06-20T12:18:50.338Z,31.80
2017-06-20T12:21:17.991Z,31.80
2017-06-20T12:23:46.126Z,31.90
2017-06-20T12:26:14.817Z,32.20
2017-06-20T12:28:42.432Z,32.20
2017-06-20T12:31:10.816Z,32.50
2017-06-20T12:33:38.810Z,32.40
2017-06-20T12:36:06.419Z,32.30
2017-06-20T12:38:34.057Z,32.10
2017-06-20T12:41:02.047Z,32.10
2017-06-20T12:43:29.659Z,32.20
2017-06-20T12:45:57.278Z,32.40
2017-06-20T12:48:25.262Z,32.40
2017-06-20T12:50:52.877Z,32.60
2017-06-20T12:53:20.484Z,32.70
2017-06-20T12:55:48.404Z,32.70
2017-06-20T12:58:16.021Z,32.50
2017-06-20T13:00:43.646Z,32.30
2017-06-20T13:03:11.659Z,32.10
2017-06-20T13:05:39.320Z,32.20
2017-06-20T13:08:06.937Z,32.40
2017-06-20T13:10:34.832Z,32.30
2017-06-20T13:13:02.441Z,32.40
2017-06-20T13:15:30.055Z,32.40
2017-06-20T13:17:58.058Z,32.50
2017-06-20T13:20:25.682Z,32.50
2017-06-20T13:22:53.312Z,32.50
2017-06-20T13:25:22.038Z,32.20
2017-06-20T13:27:49.662Z,32.10
2017-06-20T13:30:17.277Z,32.20
2017-06-20T13:32:45.206Z,32.20
2017-06-20T13:35:12.821Z,32.20
2017-06-20T13:37:40.437Z,32.20
2017-06-20T13:40:08.646Z,31.90
2017-06-20T13:42:36.273Z,31.90
2017-06-20T13:45:03.877Z,31.90
2017-06-20T13:47:32.598Z,31.90
2017-06-20T13:50:00.362Z,31.80
2017-06-20T13:52:27.990Z,31.90
2017-06-20T13:54:56.022Z,31.80
2017-06-20T13:57:23.691Z,31.80
2017-06-20T13:59:51.316Z,31.70
2017-06-20T14:02:19.243Z,31.70
2017-06-20T14:04:47.654Z,31.60
2017-06-20T14:07:15.265Z,31.50
2017-06-20T14:09:43.170Z,31.40
2017-06-20T14:12:10.787Z,31.20
2017-06-20T14:14:38.421Z,31.10
2017-06-20T14:17:06.382Z,31.10
2017-06-20T14:19:33.994Z,31.20
2017-06-20T14:22:02.381Z,31.50
2017-06-20T14:24:30.349Z,31.40
2017-06-20T14:26:57.964Z,31.50
2017-06-20T14:29:26.353Z,31.30
2017-06-20T14:31:54.310Z,31.20
2017-06-20T14:34:21.961Z,31.30
2017-06-20T14:36:49.568Z,31.20
2017-06-20T14:39:18.382Z,31.10
2017-06-20T14:41:45.992Z,31.10
2017-06-20T14:44:13.626Z,31.10
2017-06-20T14:46:41.523Z,31.00
2017-06-20T14:49:09.146Z,31.00
2017-06-20T14:51:36.777Z,31.00
2017-06-20T14:54:05.521Z,30.90
2017-06-20T14:56:33.136Z,30.90
2017-06-20T14:59:00.740Z,30.80
2017-06-20T15:01:29.400Z,30.60
2017-06-20T15:03:57.049Z,30.50
2017-06-20T15:06:25.421Z,30.50
2017-06-20T15:08:53.684Z,30.40
2017-06-20T15:11:22.107Z,30.60
2017-06-20T15:13:49.726Z,30.50
2017-06-20T15:16:17.661Z,30.60
2017-06-20T15:18:45.317Z,30.70
2017-06-20T15:21:12.944Z,30.60
2017-06-20T15:23:41.145Z,30.60
2017-06-20T15:26:08.872Z,30.60
2017-06-20T15:28:36.509Z,30.50
2017-06-20T15:31:04.412Z,30.50
2017-06-20T15:33:32.037Z,30.50
2017-06-20T15:35:59.653Z,30.40
2017-06-20T15:38:27.596Z,30.40
2017-06-20T15:40:55.212Z,30.40
2017-06-20T15:43:22.821Z,30.40
2017-06-20T15:45:50.741Z,30.30
2017-06-20T15:48:18.362Z,30.10
2017-06-20T15:50:45.989Z,30.10
2017-06-20T15:53:14.005Z,30.20
2017-06-20T15:55:41.635Z,30.20
2017-06-20T15:58:09.248Z,30.20
2017-06-20T16:00:37.248Z,30.20
2017-06-20T16:03:04.860Z,30.10
2017-06-20T16:05:32.468Z,30.10
2017-06-20T16:08:00.393Z,30.10
2017-06-20T16:10:28.026Z,29.90
2017-06-20T16:12:55.651Z,29.90
2017-06-20T16:15:24.340Z,29.80
2017-06-20T16:17:52.740Z,29.80
2017-06-20T16:20:20.371Z,29.80
2017-06-20T16:22:48.435Z,29.80
2017-06-20T16:25:16.049Z,29.80
2017-06-20T16:27:43.696Z,29.80
2017-06-20T16:30:11.664Z,29.60
2017-06-20T16:32:39.293Z,29.60
2017-06-20T16:35:07.671Z,29.40
2017-06-20T16:37:35.590Z,29.30
2017-06-20T16:40:03.224Z,29.30
2017-06-20T16:42:30.831Z,29.20
2017-06-20T16:44:58.821Z,29.20
2017-06-20T16:47:26.439Z,29.10
2017-06-20T16:49:54.058Z,29.00
2017-06-20T16:52:22.039Z,29.00
2017-06-20T16:54:49.657Z,29.00
2017-06-20T16:57:17.292Z,28.90
2017-06-20T16:59:45.977Z,28.80
2017-06-20T17:02:13.598Z,28.70
2017-06-20T17:04:41.261Z,28.70
2017-06-20T17:07:09.231Z,28.70
2017-06-20T17:09:36.849Z,28.70
2017-06-20T17:12:05.235Z,28.60
2017-06-20T17:14:33.127Z,28.50
2017-06-20T17:17:00.740Z,28.60
2017-06-20T17:19:28.368Z,28.50
2017-06-20T17:21:56.528Z,28.40
2017-06-20T17:24:24.172Z,28.40
2017-06-20T17:26:53.020Z,28.30
2017-06-20T17:29:20.954Z,28.30
2017-06-20T17:31:48.577Z,28.30
2017-06-20T17:34:16.184Z,28.30
2017-06-20T17:36:44.926Z,28.20
2017-06-20T17:39:12.584Z,28.10
2017-06-20T17:41:40.201Z,28.10
2017-06-20T17:44:08.132Z,28.10
2017-06-20T17:46:35.752Z,28.10
2017-06-20T17:49:03.356Z,28.10
2017-06-20T17:51:31.274Z,28.00
2017-06-20T17:53:58.890Z,27.90
2017-06-20T17:56:27.278Z,27.90
2017-06-20T17:58:55.255Z,27.80
2017-06-20T18:01:22.889Z,27.80
2017-06-20T18:03:50.494Z,27.80
2017-06-20T18:06:18.454Z,27.70
2017-06-20T18:08:46.830Z,27.60
2017-06-20T18:11:14.493Z,27.50
2017-06-20T18:13:42.450Z,27.50
2017-06-20T18:16:10.137Z,27.50
2017-06-20T18:18:37.833Z,27.30
2017-06-20T18:21:05.813Z,27.20
2017-06-20T18:23:33.434Z,27.10
2017-06-20T18:26:01.095Z,27.00
2017-06-20T18:28:29.120Z,26.90
2017-06-20T18:30:57.508Z,26.90
2017-06-20T18:33:25.118Z,26.80
2017-06-20T18:35:53.065Z,26.70
2017-06-20T18:38:20.701Z,26.70
2017-06-20T18:40:48.373Z,26.60
2017-06-20T18:43:17.072Z,26.40
2017-06-20T18:45:44.699Z,26.30
2017-06-20T18:48:13.248Z,26.30
2017-06-20T18:50:41.554Z,26.20
2017-06-20T18:53:09.183Z,26.20
2017-06-20T18:55:36.792Z,26.20
2017-06-20T18:58:04.712Z,26.20
2017-06-20T19:00:33.342Z,26.10
2017-06-20T19:03:00.960Z,26.10
2017-06-20T19:05:28.887Z,26.00
2017-06-20T19:07:56.508Z,25.90
2017-06-20T19:10:24.128Z,25.90
2017-06-20T19:12:52.816Z,25.80
2017-06-20T19:15:20.436Z,25.80
2017-06-20T19:17:48.040Z,25.80
2017-06-20T19:20:16.064Z,25.70
2017-06-20T19:22:43.760Z,25.70
2017-06-20T19:25:11.376Z,25.60
2017-06-20T19:27:39.315Z,25.60
2017-06-20T19:30:06.916Z,25.60
2017-06-20T19:32:34.916Z,25.50
2017-06-20T19:35:02.868Z,25.50
2017-06-20T19:37:30.483Z,25.40
2017-06-20T19:39:58.095Z,25.40
2017-06-20T19:42:26.128Z,25.40
2017-06-20T19:44:53.744Z,25.40
2017-06-20T19:47:21.479Z,25.40
2017-06-20T19:49:50.193Z,25.30
2017-06-20T19:52:17.814Z,25.30
2017-06-20T19:54:45.446Z,25.30
2017-06-20T19:57:13.439Z,25.30
2017-06-20T19:59:41.169Z,25.20
2017-06-20T20:02:08.793Z,25.10
2017-06-20T20:04:37.508Z,25.10
2017-06-20T20:07:05.112Z,25.00
2017-06-20T20:09:32.730Z,25.10
2017-06-20T20:12:00.663Z,25.10
2017-06-20T20:14:28.297Z,25.10
2017-06-20T20:16:55.912Z,25.00
2017-06-20T20:19:24.813Z,24.90
2017-06-20T20:21:52.441Z,24.70
2017-06-20T20:24:20.063Z,24.50
2017-06-20T20:26:48.071Z,24.50
2017-06-20T20:29:16.997Z,24.40
2017-06-20T20:31:44.775Z,24.40
2017-06-20T20:34:12.740Z,24.40
2017-06-20T20:36:41.969Z,24.40
2017-06-20T20:39:09.613Z,24.50
2017-06-20T20:41:37.519Z,24.50
2017-06-20T20:44:05.141Z,24.40
2017-06-20T20:46:33.516Z,24.40
2017-06-20T20:49:01.505Z,24.30
2017-06-20T20:51:29.117Z,24.30
2017-06-20T20:53:56.745Z,24.30
2017-06-20T20:56:24.725Z,24.30
2017-06-20T20:58:52.352Z,24.20
2017-06-20T21:01:20.729Z,24.10
2017-06-20T21:03:48.698Z,24.10
2017-06-20T21:06:16.321Z,24.00
2017-06-20T21:08:44.709Z,23.90
2017-06-20T21:11:12.668Z,23.80
2017-06-20T21:13:40.288Z,23.80
2017-06-20T21:16:07.922Z,23.70
2017-06-20T21:18:36.648Z,23.60
2017-06-20T21:21:04.317Z,23.60
2017-06-20T21:23:31.935Z,23.60
2017-06-20T21:25:59.876Z,23.50
2017-06-20T21:28:27.488Z,23.50
2017-06-20T21:30:55.109Z,23.40
2017-06-20T21:33:23.056Z,23.40
2017-06-20T21:35:50.676Z,23.40
2017-06-20T21:38:18.302Z,23.40
2017-06-20T21:40:46.264Z,23.20
2017-06-20T21:43:13.875Z,23.20
2017-06-20T21:45:42.256Z,23.20
2017-06-20T21:48:10.229Z,23.20
2017-06-20T21:50:37.888Z,23.20
2017-06-20T21:53:05.539Z,23.00
2017-06-20T21:55:33.469Z,23.00
2017-06-20T21:58:01.076Z,23.00
2017-06-20T22:00:28.700Z,22.90
2017-06-20T22:02:56.724Z,22.90
2017-06-20T22:05:24.341Z,22.80
2017-06-20T22:07:52.749Z,22.70
2017-06-20T22:10:20.700Z,22.60
2017-06-20T22:12:48.313Z,22.70
2017-06-20T22:15:15.929Z,22.60
2017-06-20T22:17:44.648Z,22.40
2017-06-20T22:20:12.276Z,22.40
2017-06-20T22:22:39.890Z,22.40
2017-06-20T22:25:07.896Z,22.30
2017-06-20T22:27:35.512Z,22.20
2017-06-20T22:30:04.949Z,22.00
2017-06-20T22:32:32.980Z,22.00
2017-06-20T22:35:00.589Z,22.00
2017-06-20T22:37:28.217Z,21.90
2017-06-20T22:39:56.236Z,21.80
2017-06-20T22:42:23.857Z,21.80
2017-06-20T22:44:52.252Z,21.70
2017-06-20T22:47:20.173Z,21.60
2017-06-20T22:49:48.572Z,21.50
2017-06-20T22:52:16.217Z,21.50
2017-06-20T22:54:44.154Z,21.50
2017-06-20T22:57:11.774Z,21.40
2017-06-20T22:59:40.153Z,21.40
2017-06-20T23:02:08.121Z,21.30
2017-06-20T23:04:35.757Z,21.30
2017-06-20T23:07:03.370Z,21.30
2017-06-20T23:09:31.372Z,21.30
2017-06-20T23:11:58.996Z,21.20
2017-06-20T23:14:26.615Z,21.00
2017-06-20T23:16:54.611Z,21.10
2017-06-20T23:19:22.284Z,21.10
2017-06-20T23:21:49.946Z,21.00
2017-06-20T23:24:17.868Z,20.90
2017-06-20T23:26:45.477Z,20.90
2017-06-20T23:29:13.867Z,20.70
2017-06-20T23:31:41.777Z,20.60
2017-06-20T23:34:09.389Z,20.60
2017-06-20T23:36:37.005Z,20.50
2017-06-20T23:39:04.964Z,20.50
2017-06-20T23:41:33.461Z,20.40
2017-06-20T23:44:01.068Z,20.40
2017-06-20T23:46:29.033Z,20.30
2017-06-20T23:48:56.654Z,20.20
2017-06-20T23:51:24.289Z,20.10
2017-06-20T23:53:53.127Z,19.90
2017-06-20T23:56:20.742Z,19.90
2017-06-20T23:58:48.357Z,19.80
